Schedule Details


Flight Number: CTN476
Departure: Cilipi (LDDU) at 15:05
Arrival: Charles-de-gaulle (LFPG) at 17:30
Route: AMUGO UL611 UVODI L611 UMSON UL611 ROTAR L611 SUXAN UL613 LUL G4 RLP

Weather Information
LDDU 290200Z 17005KT 130V210 9999 BKN050 13/09 Q1010
LFPG 290200Z 24011KT 9999 FEW040 BKN160 04/02 Q1009 NOSIG
Schedule Frequency

Route Map